createdAt,value
2019-03-29T00:01:24.341Z,10.26
2019-03-29T00:04:12.561Z,9.77
2019-03-29T00:06:59.499Z,9.86
2019-03-29T00:09:49.768Z,9.26
2019-03-29T00:12:37.094Z,9.41
2019-03-29T00:15:24.331Z,9.39
2019-03-29T00:18:11.458Z,9.65
2019-03-29T00:20:58.567Z,9.62
2019-03-29T00:23:45.948Z,9.45
2019-03-29T00:26:33.457Z,8.89
2019-03-29T00:29:20.815Z,8.97
2019-03-29T00:32:07.909Z,8.79
2019-03-29T00:34:55.377Z,8.59
2019-03-29T00:37:52.732Z,8.79
2019-03-29T00:40:30.974Z,8.39
2019-03-29T00:43:19.141Z,8.40
2019-03-29T00:46:06.532Z,8.28
2019-03-29T00:48:53.577Z,8.28
2019-03-29T00:51:40.724Z,8.28
2019-03-29T00:54:28.361Z,8.42
2019-03-29T00:57:15.836Z,8.55
2019-03-29T01:00:02.998Z,8.60
2019-03-29T01:02:50.691Z,8.49
2019-03-29T01:05:37.721Z,8.21
2019-03-29T01:08:25.485Z,8.07
2019-03-29T01:11:12.489Z,7.89
2019-03-29T01:13:59.571Z,7.69
2019-03-29T01:16:47.185Z,7.77
2019-03-29T01:19:34.475Z,7.78
2019-03-29T01:22:21.722Z,7.72
2019-03-29T01:25:08.854Z,7.63
2019-03-29T01:27:56.356Z,7.69
2019-03-29T01:30:44.250Z,7.87
2019-03-29T01:33:31.540Z,7.81
2019-03-29T01:36:19.363Z,7.62
2019-03-29T01:39:06.683Z,7.55
2019-03-29T01:41:53.804Z,7.58
2019-03-29T01:44:41.612Z,7.59
2019-03-29T01:47:29.334Z,7.61
2019-03-29T01:50:17.103Z,7.74
2019-03-29T01:53:04.749Z,7.78
2019-03-29T01:55:51.420Z,7.72
2019-03-29T01:58:38.680Z,7.77
2019-03-29T02:01:26.259Z,7.57
2019-03-29T02:04:13.395Z,7.35
2019-03-29T02:07:00.188Z,7.39
2019-03-29T02:09:47.943Z,7.42
2019-03-29T02:12:35.292Z,7.38
2019-03-29T02:15:22.480Z,7.35
2019-03-29T02:18:09.827Z,7.38
2019-03-29T02:20:56.728Z,7.51
2019-03-29T02:23:43.902Z,7.68
2019-03-29T02:26:31.460Z,7.53
2019-03-29T02:29:18.804Z,7.41
2019-03-29T02:32:06.582Z,7.49
2019-03-29T02:34:53.882Z,7.64
2019-03-29T02:37:41.261Z,7.64
2019-03-29T02:40:28.149Z,7.54
2019-03-29T02:43:15.479Z,7.35
2019-03-29T02:46:02.300Z,7.25
2019-03-29T02:48:49.945Z,7.36
2019-03-29T02:51:36.956Z,7.47
2019-03-29T02:54:24.016Z,7.30
2019-03-29T02:57:11.330Z,7.24
2019-03-29T02:59:59.275Z,7.38
2019-03-29T03:02:46.304Z,7.48
2019-03-29T03:05:33.568Z,7.52
2019-03-29T03:08:21.304Z,7.45
2019-03-29T03:11:08.515Z,7.46
2019-03-29T03:13:55.641Z,7.39
2019-03-29T03:16:43.201Z,7.42
2019-03-29T03:19:30.214Z,7.41
2019-03-29T03:22:17.857Z,7.44
2019-03-29T03:25:05.687Z,7.43
2019-03-29T03:27:52.793Z,7.34
2019-03-29T03:30:39.968Z,7.36
2019-03-29T03:33:28.211Z,7.38
2019-03-29T03:36:15.012Z,7.38
2019-03-29T03:39:02.361Z,7.38
2019-03-29T03:41:49.292Z,7.31
2019-03-29T03:44:36.729Z,7.29
2019-03-29T03:47:23.649Z,7.35
2019-03-29T03:50:46.393Z,7.35
2019-03-29T03:53:33.736Z,7.31
2019-03-29T03:56:21.771Z,7.22
2019-03-29T03:59:09.642Z,7.19
2019-03-29T04:01:56.490Z,7.10
2019-03-29T04:04:44.095Z,7.09
2019-03-29T04:07:31.814Z,7.08
2019-03-29T04:10:19.038Z,7.06
2019-03-29T04:13:06.316Z,6.96
2019-03-29T04:15:54.117Z,7.04
2019-03-29T04:18:41.299Z,6.94
2019-03-29T04:21:28.578Z,7.00
2019-03-29T04:24:16.119Z,6.97
2019-03-29T04:27:03.053Z,6.99
2019-03-29T04:29:50.796Z,7.04
2019-03-29T04:32:38.031Z,7.02
2019-03-29T04:35:25.783Z,6.96
2019-03-29T04:38:13.255Z,6.96
2019-03-29T04:41:00.959Z,6.85
2019-03-29T04:43:48.009Z,6.77
2019-03-29T04:46:35.143Z,6.88
2019-03-29T04:49:21.992Z,6.87
2019-03-29T04:52:09.225Z,6.91
2019-03-29T04:54:56.734Z,6.88
2019-03-29T04:57:43.997Z,6.89
2019-03-29T05:00:31.289Z,6.87
2019-03-29T05:03:18.235Z,6.97
2019-03-29T05:06:05.056Z,7.05
2019-03-29T05:08:52.184Z,7.04
2019-03-29T05:11:39.310Z,6.84
2019-03-29T05:14:26.249Z,6.82
2019-03-29T05:17:13.689Z,6.89
2019-03-29T05:20:01.125Z,6.83
2019-03-29T05:22:48.143Z,6.74
2019-03-29T05:25:35.943Z,6.58
2019-03-29T05:28:23.183Z,6.46
2019-03-29T05:31:10.502Z,6.36
2019-03-29T05:33:58.715Z,6.36
2019-03-29T05:36:46.630Z,6.75
2019-03-29T05:39:34.164Z,6.87
2019-03-29T05:42:21.841Z,7.31
2019-03-29T05:45:09.071Z,7.54
2019-03-29T05:47:56.356Z,7.73
2019-03-29T05:50:43.422Z,7.51
2019-03-29T05:53:30.129Z,7.67
2019-03-29T05:56:17.195Z,7.91
2019-03-29T05:59:04.313Z,7.60
2019-03-29T06:01:51.649Z,7.51
2019-03-29T06:04:38.793Z,7.44
2019-03-29T06:07:26.017Z,7.78
2019-03-29T06:10:12.888Z,8.55
2019-03-29T06:12:59.880Z,9.02
2019-03-29T06:15:47.033Z,9.25
2019-03-29T06:18:34.149Z,8.51
2019-03-29T06:21:21.073Z,9.01
2019-03-29T06:24:09.862Z,8.68
2019-03-29T06:26:57.579Z,8.87
2019-03-29T06:29:44.809Z,9.23
2019-03-29T06:32:32.050Z,9.36
2019-03-29T06:35:19.341Z,9.70
2019-03-29T06:38:09.246Z,10.15
2019-03-29T06:41:02.627Z,10.76
2019-03-29T06:43:45.292Z,12.37
2019-03-29T06:46:32.976Z,12.76
2019-03-29T06:49:20.076Z,13.98
2019-03-29T06:52:07.165Z,15.83
2019-03-29T06:54:53.900Z,13.34
2019-03-29T06:57:41.952Z,12.91
2019-03-29T07:00:28.878Z,13.41
2019-03-29T07:03:15.900Z,14.58
2019-03-29T07:06:03.350Z,14.51
2019-03-29T07:08:50.175Z,14.17
2019-03-29T07:11:39.678Z,13.70
2019-03-29T07:14:26.747Z,16.71
2019-03-29T07:17:13.600Z,17.06
2019-03-29T07:20:00.503Z,17.06
2019-03-29T07:22:48.184Z,15.27
2019-03-29T07:25:35.611Z,13.58
2019-03-29T07:28:23.109Z,14.00
2019-03-29T07:31:10.260Z,14.13
2019-03-29T07:33:57.172Z,15.95
2019-03-29T07:36:43.847Z,15.05
2019-03-29T07:39:31.915Z,15.03
2019-03-29T07:42:19.020Z,14.44
2019-03-29T07:45:10.132Z,14.33
2019-03-29T07:47:58.465Z,14.92
2019-03-29T07:50:45.744Z,15.29
2019-03-29T07:53:33.618Z,15.80
2019-03-29T07:56:20.971Z,14.55
2019-03-29T07:59:08.257Z,14.81
2019-03-29T08:01:56.026Z,15.25
2019-03-29T08:04:46.408Z,15.08
2019-03-29T08:07:33.381Z,15.57
2019-03-29T08:10:26.131Z,14.24
2019-03-29T08:13:10.172Z,16.41
2019-03-29T08:15:57.992Z,17.25
2019-03-29T08:18:44.983Z,17.61
2019-03-29T08:21:32.284Z,17.80
2019-03-29T08:24:20.068Z,18.70
2019-03-29T08:27:07.286Z,18.73
2019-03-29T08:29:54.787Z,19.72
2019-03-29T08:32:41.676Z,17.82
2019-03-29T08:35:28.708Z,17.36
2019-03-29T08:38:16.212Z,19.23
2019-03-29T08:41:03.556Z,19.52
2019-03-29T08:43:50.474Z,19.12
2019-03-29T08:46:37.413Z,20.17
2019-03-29T08:49:24.625Z,19.93
2019-03-29T08:52:11.685Z,18.49
2019-03-29T08:54:58.980Z,19.38
2019-03-29T08:57:46.581Z,18.43
2019-03-29T09:00:34.283Z,18.18
2019-03-29T09:03:21.230Z,18.78
2019-03-29T09:06:08.441Z,18.91
2019-03-29T09:08:55.930Z,16.77
2019-03-29T09:11:43.931Z,17.84
2019-03-29T09:14:31.676Z,17.18
2019-03-29T09:17:20.080Z,18.50
2019-03-29T09:20:10.556Z,19.20
2019-03-29T09:22:57.791Z,19.29
2019-03-29T09:25:45.181Z,17.51
2019-03-29T09:28:33.062Z,17.16
2019-03-29T09:31:20.290Z,16.68
2019-03-29T09:34:07.334Z,17.93
2019-03-29T09:36:54.545Z,19.53
2019-03-29T09:39:41.503Z,19.61
2019-03-29T09:42:30.742Z,17.19
2019-03-29T09:45:19.187Z,16.84
2019-03-29T09:48:06.265Z,17.64
2019-03-29T09:50:52.971Z,17.77
2019-03-29T09:53:41.327Z,19.53
2019-03-29T09:56:38.489Z,17.27
2019-03-29T09:59:17.754Z,19.03
2019-03-29T10:02:05.408Z,19.02
2019-03-29T10:04:52.638Z,17.66
2019-03-29T10:07:39.759Z,17.82
2019-03-29T10:10:26.703Z,18.41
2019-03-29T10:13:13.843Z,18.36
2019-03-29T10:16:01.731Z,18.81
2019-03-29T10:18:50.753Z,19.62
2019-03-29T10:21:38.083Z,19.40
2019-03-29T10:24:25.217Z,17.81
2019-03-29T10:27:20.878Z,19.04
2019-03-29T10:30:08.604Z,20.12
2019-03-29T10:32:55.673Z,18.46
2019-03-29T10:35:52.221Z,18.75
2019-03-29T10:38:33.826Z,18.95
2019-03-29T10:41:22.612Z,18.13
2019-03-29T10:44:09.958Z,19.22
2019-03-29T10:46:57.366Z,18.84
2019-03-29T10:49:44.338Z,19.39
2019-03-29T10:52:31.276Z,17.90
2019-03-29T10:55:18.633Z,18.36
2019-03-29T10:58:09.478Z,19.79
2019-03-29T11:00:55.361Z,19.13
2019-03-29T11:03:42.378Z,20.06
2019-03-29T11:06:29.666Z,20.95
2019-03-29T11:09:17.351Z,20.77
2019-03-29T11:12:04.570Z,19.46
2019-03-29T11:14:51.873Z,20.51
2019-03-29T11:17:39.026Z,20.89
2019-03-29T11:20:26.425Z,19.36
2019-03-29T11:23:14.030Z,20.77
2019-03-29T11:26:01.390Z,20.04
2019-03-29T11:28:48.628Z,21.51
2019-03-29T11:31:35.560Z,21.09
2019-03-29T11:34:22.922Z,21.66
2019-03-29T11:37:09.693Z,20.98
2019-03-29T11:39:56.520Z,20.16
2019-03-29T11:42:44.497Z,19.71
2019-03-29T11:45:33.295Z,18.36
2019-03-29T11:48:20.732Z,18.50
2019-03-29T11:51:18.678Z,17.53
2019-03-29T11:53:56.875Z,17.85
2019-03-29T11:56:47.489Z,18.71
2019-03-29T11:59:33.366Z,18.78
2019-03-29T12:02:31.308Z,20.12
2019-03-29T12:05:13.758Z,20.35
2019-03-29T12:08:00.605Z,18.58
2019-03-29T12:10:48.146Z,19.96
2019-03-29T12:13:40.884Z,20.56
2019-03-29T12:16:24.369Z,20.79
2019-03-29T12:19:12.026Z,20.35
2019-03-29T12:21:59.906Z,20.57
2019-03-29T12:24:47.962Z,20.96
2019-03-29T12:27:35.002Z,20.27
2019-03-29T12:30:31.514Z,20.60
2019-03-29T12:33:11.614Z,20.51
2019-03-29T12:36:02.230Z,20.28
2019-03-29T12:38:50.130Z,21.14
2019-03-29T12:41:37.538Z,19.54
2019-03-29T12:44:24.686Z,20.02
2019-03-29T12:47:13.678Z,19.82
2019-03-29T12:50:01.066Z,20.50
2019-03-29T12:52:48.453Z,20.73
2019-03-29T12:55:35.291Z,20.78
2019-03-29T12:58:22.787Z,22.17
2019-03-29T13:01:10.674Z,23.12
2019-03-29T13:03:58.159Z,18.51
2019-03-29T13:06:45.596Z,20.16
2019-03-29T13:09:32.823Z,18.90
2019-03-29T13:12:19.738Z,20.31
2019-03-29T13:15:06.909Z,18.62
2019-03-29T13:17:53.986Z,20.57
2019-03-29T13:20:41.930Z,19.17
2019-03-29T13:23:28.975Z,20.24
2019-03-29T13:26:15.920Z,20.14
2019-03-29T13:29:05.129Z,18.83
2019-03-29T13:31:51.818Z,19.45
2019-03-29T13:34:38.713Z,20.96
2019-03-29T13:37:26.298Z,20.78
2019-03-29T13:40:13.382Z,22.45
2019-03-29T13:43:00.894Z,23.17
2019-03-29T13:45:48.372Z,22.42
2019-03-29T13:48:35.767Z,18.93
2019-03-29T13:51:22.182Z,21.30
2019-03-29T13:54:09.522Z,21.54
2019-03-29T13:56:56.894Z,19.12
2019-03-29T13:59:43.945Z,18.16
2019-03-29T14:02:31.351Z,19.23
2019-03-29T14:05:18.892Z,19.36
2019-03-29T14:08:06.075Z,18.45
2019-03-29T14:10:53.746Z,19.54
2019-03-29T14:13:40.886Z,20.79
2019-03-29T14:16:30.474Z,19.84
2019-03-29T14:19:17.599Z,18.35
2019-03-29T14:22:04.814Z,19.04
2019-03-29T14:24:54.092Z,19.37
2019-03-29T14:27:41.678Z,19.43
2019-03-29T14:30:28.542Z,21.24
2019-03-29T14:33:15.962Z,22.08
2019-03-29T14:36:03.339Z,22.60
2019-03-29T14:38:50.326Z,22.57
2019-03-29T14:41:37.365Z,20.93
2019-03-29T14:44:24.661Z,19.52
2019-03-29T14:47:11.993Z,19.32
2019-03-29T14:49:59.445Z,18.77
2019-03-29T14:52:46.178Z,18.50
2019-03-29T14:55:33.499Z,18.38
2019-03-29T14:58:21.088Z,18.47
2019-03-29T15:01:08.460Z,18.17
2019-03-29T15:03:55.817Z,18.37
2019-03-29T15:06:43.050Z,18.65
2019-03-29T15:09:30.602Z,18.83
2019-03-29T15:12:17.563Z,18.56
2019-03-29T15:15:06.346Z,19.10
2019-03-29T15:17:54.498Z,18.79
2019-03-29T15:20:52.777Z,18.52
2019-03-29T15:23:30.765Z,18.56
2019-03-29T15:26:17.715Z,18.50
2019-03-29T15:29:04.961Z,18.29
2019-03-29T15:31:52.284Z,18.12
2019-03-29T15:34:40.693Z,18.28
2019-03-29T15:37:27.606Z,18.50
2019-03-29T15:40:15.443Z,17.91
2019-03-29T15:43:02.391Z,17.96
2019-03-29T15:45:49.715Z,18.13
2019-03-29T15:48:36.615Z,18.53
2019-03-29T15:51:24.496Z,18.25
2019-03-29T15:54:11.914Z,18.81
2019-03-29T15:56:58.755Z,18.49
2019-03-29T15:59:46.023Z,17.83
2019-03-29T16:02:33.017Z,17.58
2019-03-29T16:05:20.431Z,17.65
2019-03-29T16:08:07.735Z,17.77
2019-03-29T16:10:54.915Z,17.99
2019-03-29T16:13:42.258Z,17.84
2019-03-29T16:16:29.191Z,17.63
2019-03-29T16:19:16.351Z,17.72
2019-03-29T16:22:05.899Z,17.80
2019-03-29T16:24:52.214Z,17.89
2019-03-29T16:27:39.443Z,17.82
2019-03-29T16:30:26.859Z,17.49
2019-03-29T16:33:14.265Z,17.43
2019-03-29T16:36:02.038Z,17.67
2019-03-29T16:38:49.205Z,17.32
2019-03-29T16:41:36.343Z,17.57
2019-03-29T16:44:23.418Z,17.50
2019-03-29T16:47:10.742Z,17.42
2019-03-29T16:49:57.939Z,17.19
2019-03-29T16:52:45.296Z,17.44
2019-03-29T16:55:32.488Z,17.35
2019-03-29T16:58:20.160Z,17.40
2019-03-29T17:01:08.256Z,17.07
2019-03-29T17:03:55.199Z,17.25
2019-03-29T17:06:42.375Z,17.19
2019-03-29T17:09:29.507Z,17.15
2019-03-29T17:12:16.443Z,17.01
2019-03-29T17:15:04.039Z,16.81
2019-03-29T17:17:51.383Z,17.10
2019-03-29T17:20:38.236Z,17.00
2019-03-29T17:23:25.080Z,16.97
2019-03-29T17:26:12.543Z,16.79
2019-03-29T17:28:59.668Z,16.91
2019-03-29T17:31:46.487Z,16.77
2019-03-29T17:34:33.462Z,16.63
2019-03-29T17:37:19.882Z,16.39
2019-03-29T17:40:07.954Z,16.39
2019-03-29T17:42:54.694Z,16.26
2019-03-29T17:45:41.812Z,16.09
2019-03-29T17:48:29.556Z,16.08
2019-03-29T17:51:17.043Z,16.05
2019-03-29T17:54:04.371Z,15.88
2019-03-29T17:56:51.701Z,15.87
2019-03-29T17:59:38.932Z,15.77
2019-03-29T18:02:25.854Z,15.65
2019-03-29T18:05:13.322Z,15.39
2019-03-29T18:08:00.647Z,15.29
2019-03-29T18:10:47.739Z,15.13
2019-03-29T18:13:35.264Z,15.02
2019-03-29T18:16:30.471Z,14.87
2019-03-29T18:19:11.672Z,14.69
2019-03-29T18:21:59.123Z,14.71
2019-03-29T18:24:46.338Z,14.55
2019-03-29T18:27:33.659Z,14.47
2019-03-29T18:30:38.083Z,14.33
2019-03-29T18:33:26.247Z,14.30
2019-03-29T18:36:12.850Z,14.56
2019-03-29T18:39:00.541Z,14.44
2019-03-29T18:41:47.323Z,14.44
2019-03-29T18:44:34.572Z,14.41
2019-03-29T18:47:22.077Z,14.30
2019-03-29T18:50:09.212Z,14.21
2019-03-29T18:52:56.536Z,14.03
2019-03-29T18:55:43.545Z,13.77
2019-03-29T18:58:30.692Z,13.75
2019-03-29T19:01:17.726Z,13.80
2019-03-29T19:04:04.141Z,13.83
2019-03-29T19:06:51.959Z,13.82
2019-03-29T19:09:39.853Z,13.60
2019-03-29T19:12:26.728Z,13.73
2019-03-29T19:15:14.010Z,13.82
2019-03-29T19:18:01.773Z,13.40
2019-03-29T19:20:48.986Z,13.48
2019-03-29T19:23:36.203Z,13.65
2019-03-29T19:26:23.350Z,13.57
2019-03-29T19:29:10.904Z,13.48
2019-03-29T19:31:58.080Z,13.25
2019-03-29T19:34:45.418Z,13.25
2019-03-29T19:37:32.737Z,13.35
2019-03-29T19:40:20.248Z,13.33
2019-03-29T19:43:07.560Z,13.32
2019-03-29T19:45:54.835Z,13.28
2019-03-29T19:48:41.998Z,13.34
2019-03-29T19:51:29.360Z,13.35
2019-03-29T19:54:16.506Z,13.35
2019-03-29T19:57:05.338Z,13.44
2019-03-29T19:59:52.345Z,13.36
2019-03-29T20:02:39.174Z,13.46
2019-03-29T20:05:27.891Z,13.44
2019-03-29T20:08:15.144Z,13.43
2019-03-29T20:11:02.519Z,13.25
2019-03-29T20:13:50.248Z,13.10
2019-03-29T20:16:37.361Z,13.36
2019-03-29T20:19:24.832Z,13.40
2019-03-29T20:22:12.467Z,13.47
2019-03-29T20:24:59.599Z,13.49
2019-03-29T20:27:46.773Z,13.42
2019-03-29T20:30:34.208Z,13.43
2019-03-29T20:33:21.491Z,13.41
2019-03-29T20:36:08.736Z,13.38
2019-03-29T20:38:55.911Z,13.39
2019-03-29T20:41:42.656Z,13.28
2019-03-29T20:44:29.916Z,13.21
2019-03-29T20:47:17.010Z,13.18
2019-03-29T20:50:04.414Z,12.99
2019-03-29T20:52:51.839Z,12.95
2019-03-29T20:55:39.127Z,12.92
2019-03-29T20:58:28.021Z,12.80
2019-03-29T21:01:15.091Z,12.67
2019-03-29T21:04:03.076Z,12.74
2019-03-29T21:06:50.048Z,12.56
2019-03-29T21:09:37.307Z,12.50
2019-03-29T21:12:28.469Z,12.45
2019-03-29T21:15:16.602Z,12.39
2019-03-29T21:18:03.558Z,12.34
2019-03-29T21:20:50.788Z,12.33
2019-03-29T21:23:37.809Z,12.25
2019-03-29T21:26:25.871Z,12.17
2019-03-29T21:29:12.856Z,12.04
2019-03-29T21:31:59.974Z,11.87
2019-03-29T21:34:46.684Z,11.87
2019-03-29T21:37:33.903Z,11.90
2019-03-29T21:40:24.634Z,11.85
2019-03-29T21:43:12.104Z,11.82
2019-03-29T21:45:59.062Z,11.78
2019-03-29T21:48:46.798Z,11.82
2019-03-29T21:51:34.051Z,11.89
2019-03-29T21:54:21.275Z,11.79
2019-03-29T21:57:09.010Z,11.89
2019-03-29T21:59:57.362Z,12.01
2019-03-29T22:02:44.560Z,12.14
2019-03-29T22:05:31.671Z,12.10
2019-03-29T22:08:19.128Z,12.00
2019-03-29T22:11:06.488Z,11.98
2019-03-29T22:13:53.530Z,11.89
2019-03-29T22:16:40.713Z,11.92
2019-03-29T22:19:27.936Z,11.80
2019-03-29T22:22:15.260Z,11.75
2019-03-29T22:25:01.964Z,11.55
2019-03-29T22:27:49.172Z,11.61
2019-03-29T22:30:36.323Z,11.64
2019-03-29T22:33:23.980Z,11.58
2019-03-29T22:36:11.492Z,11.68
2019-03-29T22:38:58.820Z,11.64
2019-03-29T22:41:45.940Z,11.70
2019-03-29T22:44:33.790Z,11.61
2019-03-29T22:47:20.593Z,11.61
2019-03-29T22:50:08.517Z,11.58
2019-03-29T22:52:56.156Z,11.50
2019-03-29T22:55:43.364Z,11.43
2019-03-29T22:58:30.077Z,11.37
2019-03-29T23:01:18.335Z,11.40
2019-03-29T23:04:04.831Z,11.19
2019-03-29T23:06:51.777Z,11.05
2019-03-29T23:09:38.880Z,10.96
2019-03-29T23:12:26.406Z,10.95
2019-03-29T23:15:13.773Z,11.04
2019-03-29T23:18:00.684Z,11.07
2019-03-29T23:20:47.887Z,11.01
2019-03-29T23:23:34.842Z,11.06
2019-03-29T23:26:22.290Z,10.99
2019-03-29T23:29:09.883Z,10.96
2019-03-29T23:31:56.921Z,10.97
2019-03-29T23:34:43.985Z,10.90
2019-03-29T23:37:31.173Z,10.77
2019-03-29T23:40:18.641Z,10.70
2019-03-29T23:43:05.841Z,10.85
2019-03-29T23:45:52.856Z,10.76
2019-03-29T23:48:39.992Z,10.68
2019-03-29T23:51:27.614Z,10.72
2019-03-29T23:54:14.844Z,10.69
2019-03-29T23:57:01.675Z,10.76
2019-03-29T23:59:49.501Z,10.67
